Le Puy-Loudes Airport

Airport
ICAO code: 
LFHP
IATA Code: 
LPY
Summary
ICAO Region: 
EUR
Territory: 
Location: 
, Auvergne
Serving: 
Le Puy
Elevation: 
2731 ft
Coordinates: 
Aerial View: 
45° 4' 50.48" N, 3° 45' 46.4" E
Metar
Observation
LFHP 201730Z AUTO 34009KT 9999 BKN032 OVC040 00/M03 Q1026
Station
Le Puy
Date/Time
2022-01-20 17:30:00
Wind direction
340°
Wind speed
09 kts
Lowest cloud amount
broken clouds
Temperature
0°C
Dew point
-3°C
Humidity
80%
QNH
1026 hPa
Weather condition
n/a

Runways

Designator Length Width Surface Rops
15R/33L 767 58 GRS No/No
15/33 1445 30 ASP No/No
Airport map: 
Aerial View: 

SKYbrary Partners:

Safety knowledge contributed by: